sensor_id;sensor_type;location;lat;lon;timestamp;temperature;humidity
41435;DHT22;27177;22.262;114.192;2022-12-29T00:00:00;13.60;99.90
41435;DHT22;27177;22.262;114.192;2022-12-29T00:02:27;13.60;99.90
41435;DHT22;27177;22.262;114.192;2022-12-29T00:04:54;13.60;99.90
41435;DHT22;27177;22.262;114.192;2022-12-29T00:07:20;13.70;99.90
41435;DHT22;27177;22.262;114.192;2022-12-29T00:09:47;13.70;99.90
41435;DHT22;27177;22.262;114.192;2022-12-29T00:12:14;13.70;99.90
41435;DHT22;27177;22.262;114.192;2022-12-29T00:14:41;13.70;99.90
41435;DHT22;27177;22.262;114.192;2022-12-29T00:17:25;13.80;99.90
41435;DHT22;27177;22.262;114.192;2022-12-29T00:19:52;13.80;99.90
41435;DHT22;27177;22.262;114.192;2022-12-29T00:22:37;13.80;99.90
41435;DHT22;27177;22.262;114.192;2022-12-29T00:25:22;13.80;99.90
41435;DHT22;27177;22.262;114.192;2022-12-29T00:28:10;13.90;99.90
41435;DHT22;27177;22.262;114.192;2022-12-29T00:30:59;13.90;99.90
41435;DHT22;27177;22.262;114.192;2022-12-29T00:33:44;13.90;99.90
41435;DHT22;27177;22.262;114.192;2022-12-29T00:36:35;14.00;99.90
41435;DHT22;27177;22.262;114.192;2022-12-29T00:39:07;14.10;99.90
41435;DHT22;27177;22.262;114.192;2022-12-29T00:41:54;14.10;99.90
41435;DHT22;27177;22.262;114.192;2022-12-29T00:44:38;14.10;99.90
41435;DHT22;27177;22.262;114.192;2022-12-29T00:47:05;14.20;99.90
41435;DHT22;27177;22.262;114.192;2022-12-29T00:49:32;14.20;99.90
41435;DHT22;27177;22.262;114.192;2022-12-29T00:52:05;14.30;99.90
41435;DHT22;27177;22.262;114.192;2022-12-29T00:54:33;14.40;99.90
41435;DHT22;27177;22.262;114.192;2022-12-29T00:57:01;14.40;99.90
41435;DHT22;27177;22.262;114.192;2022-12-29T00:59:28;14.50;99.90
41435;DHT22;27177;22.262;114.192;2022-12-29T01:01:55;14.60;99.90
41435;DHT22;27177;22.262;114.192;2022-12-29T01:04:23;14.60;99.90
41435;DHT22;27177;22.262;114.192;2022-12-29T01:06:51;14.60;99.90
41435;DHT22;27177;22.262;114.192;2022-12-29T01:09:18;14.70;99.90
41435;DHT22;27177;22.262;114.192;2022-12-29T01:12:05;14.60;99.90
41435;DHT22;27177;22.262;114.192;2022-12-29T01:14:32;14.60;99.90
41435;DHT22;27177;22.262;114.192;2022-12-29T01:16:58;14.50;99.90
41435;DHT22;27177;22.262;114.192;2022-12-29T01:19:25;14.40;99.90
41435;DHT22;27177;22.262;114.192;2022-12-29T01:21:52;14.30;99.90
41435;DHT22;27177;22.262;114.192;2022-12-29T01:24:20;14.20;99.90
41435;DHT22;27177;22.262;114.192;2022-12-29T01:26:48;14.10;99.90
41435;DHT22;27177;22.262;114.192;2022-12-29T01:29:16;14.00;99.90
41435;DHT22;27177;22.262;114.192;2022-12-29T01:31:43;14.10;99.90
41435;DHT22;27177;22.262;114.192;2022-12-29T01:34:10;14.10;99.90
41435;DHT22;27177;22.262;114.192;2022-12-29T01:36:36;14.10;99.90
41435;DHT22;27177;22.262;114.192;2022-12-29T01:39:03;14.10;99.90
41435;DHT22;27177;22.262;114.192;2022-12-29T01:41:30;14.10;99.90
41435;DHT22;27177;22.262;114.192;2022-12-29T01:43:59;14.10;99.90
41435;DHT22;27177;22.262;114.192;2022-12-29T01:46:40;14.20;99.90
41435;DHT22;27177;22.262;114.192;2022-12-29T01:49:21;14.30;99.90
41435;DHT22;27177;22.262;114.192;2022-12-29T01:51:57;14.20;99.90
41435;DHT22;27177;22.262;114.192;2022-12-29T01:54:29;14.20;99.90
41435;DHT22;27177;22.262;114.192;2022-12-29T01:57:00;14.20;99.90
41435;DHT22;27177;22.262;114.192;2022-12-29T01:59:33;14.20;99.90
41435;DHT22;27177;22.262;114.192;2022-12-29T02:02:02;14.20;99.90
41435;DHT22;27177;22.262;114.192;2022-12-29T02:04:31;14.10;99.90
41435;DHT22;27177;22.262;114.192;2022-12-29T02:07:07;14.00;99.90
41435;DHT22;27177;22.262;114.192;2022-12-29T02:09:35;14.10;99.90
41435;DHT22;27177;22.262;114.192;2022-12-29T02:12:02;14.10;99.90
41435;DHT22;27177;22.262;114.192;2022-12-29T02:14:30;14.20;99.90
41435;DHT22;27177;22.262;114.192;2022-12-29T02:20:07;14.30;99.90
41435;DHT22;27177;22.262;114.192;2022-12-29T02:25:46;14.50;99.90
41435;DHT22;27177;22.262;114.192;2022-12-29T02:41:32;15.00;99.90
41435;DHT22;27177;22.262;114.192;2022-12-29T02:50:36;15.30;99.90
41435;DHT22;27177;22.262;114.192;2022-12-29T02:53:13;15.40;99.90
41435;DHT22;27177;22.262;114.192;2022-12-29T02:55:48;15.60;99.90
41435;DHT22;27177;22.262;114.192;2022-12-29T02:58:21;15.70;99.90
41435;DHT22;27177;22.262;114.192;2022-12-29T03:00:56;15.70;99.90
41435;DHT22;27177;22.262;114.192;2022-12-29T03:06:15;15.90;99.90
41435;DHT22;27177;22.262;114.192;2022-12-29T03:11:47;16.10;99.90
41435;DHT22;27177;22.262;114.192;2022-12-29T03:17:56;16.10;99.90
41435;DHT22;27177;22.262;114.192;2022-12-29T03:20:31;16.10;99.90
41435;DHT22;27177;22.262;114.192;2022-12-29T03:23:03;16.20;99.90
41435;DHT22;27177;22.262;114.192;2022-12-29T03:25:33;16.30;99.90
41435;DHT22;27177;22.262;114.192;2022-12-29T03:28:07;16.40;99.90
41435;DHT22;27177;22.262;114.192;2022-12-29T03:30:36;16.50;99.90
41435;DHT22;27177;22.262;114.192;2022-12-29T03:33:07;16.50;99.90
41435;DHT22;27177;22.262;114.192;2022-12-29T03:35:38;16.50;99.90
41435;DHT22;27177;22.262;114.192;2022-12-29T03:39:08;16.60;99.90
41435;DHT22;27177;22.262;114.192;2022-12-29T03:41:24;16.60;99.90
41435;DHT22;27177;22.262;114.192;2022-12-29T03:43:52;16.60;99.90
41435;DHT22;27177;22.262;114.192;2022-12-29T03:46:18;16.60;99.90
41435;DHT22;27177;22.262;114.192;2022-12-29T03:48:45;16.60;99.90
41435;DHT22;27177;22.262;114.192;2022-12-29T03:51:12;16.70;99.90
41435;DHT22;27177;22.262;114.192;2022-12-29T03:53:39;16.70;99.90
41435;DHT22;27177;22.262;114.192;2022-12-29T03:56:06;16.70;99.90
41435;DHT22;27177;22.262;114.192;2022-12-29T03:58:32;16.80;99.90
41435;DHT22;27177;22.262;114.192;2022-12-29T04:00:59;16.80;99.90
41435;DHT22;27177;22.262;114.192;2022-12-29T04:03:26;16.90;99.90
41435;DHT22;27177;22.262;114.192;2022-12-29T04:05:53;16.90;99.90
41435;DHT22;27177;22.262;114.192;2022-12-29T04:08:19;17.00;99.90
41435;DHT22;27177;22.262;114.192;2022-12-29T04:10:48;17.10;99.90
41435;DHT22;27177;22.262;114.192;2022-12-29T04:13:15;17.30;99.90
41435;DHT22;27177;22.262;114.192;2022-12-29T04:15:45;17.20;99.90
41435;DHT22;27177;22.262;114.192;2022-12-29T04:18:13;17.20;99.90
41435;DHT22;27177;22.262;114.192;2022-12-29T04:20:40;17.10;99.90
41435;DHT22;27177;22.262;114.192;2022-12-29T04:23:25;17.20;99.90
41435;DHT22;27177;22.262;114.192;2022-12-29T04:25:52;17.20;99.90
41435;DHT22;27177;22.262;114.192;2022-12-29T04:28:19;17.10;99.90
41435;DHT22;27177;22.262;114.192;2022-12-29T04:30:45;17.10;99.90
41435;DHT22;27177;22.262;114.192;2022-12-29T04:33:13;17.20;99.90
41435;DHT22;27177;22.262;114.192;2022-12-29T04:35:39;17.20;99.90
41435;DHT22;27177;22.262;114.192;2022-12-29T04:38:06;17.20;99.90
41435;DHT22;27177;22.262;114.192;2022-12-29T04:40:33;17.10;99.90
41435;DHT22;27177;22.262;114.192;2022-12-29T04:43:00;17.10;99.90
41435;DHT22;27177;22.262;114.192;2022-12-29T04:45:26;17.00;99.90
41435;DHT22;27177;22.262;114.192;2022-12-29T04:47:53;16.90;99.90
41435;DHT22;27177;22.262;114.192;2022-12-29T04:50:20;17.00;99.90
41435;DHT22;27177;22.262;114.192;2022-12-29T04:52:47;16.90;99.90
41435;DHT22;27177;22.262;114.192;2022-12-29T04:55:14;16.90;99.90
41435;DHT22;27177;22.262;114.192;2022-12-29T04:57:41;16.90;99.90
41435;DHT22;27177;22.262;114.192;2022-12-29T05:00:08;16.80;99.90
41435;DHT22;27177;22.262;114.192;2022-12-29T05:02:36;16.90;99.90
41435;DHT22;27177;22.262;114.192;2022-12-29T05:05:04;16.90;99.90
41435;DHT22;27177;22.262;114.192;2022-12-29T05:07:30;16.90;99.90
41435;DHT22;27177;22.262;114.192;2022-12-29T05:09:59;16.90;99.90
41435;DHT22;27177;22.262;114.192;2022-12-29T05:12:30;16.90;99.90
41435;DHT22;27177;22.262;114.192;2022-12-29T05:14:57;16.90;99.90
41435;DHT22;27177;22.262;114.192;2022-12-29T05:17:23;17.00;99.90
41435;DHT22;27177;22.262;114.192;2022-12-29T05:19:50;17.00;99.90
41435;DHT22;27177;22.262;114.192;2022-12-29T05:22:17;17.00;99.90
41435;DHT22;27177;22.262;114.192;2022-12-29T05:24:44;17.00;99.90
41435;DHT22;27177;22.262;114.192;2022-12-29T05:27:11;17.10;99.90
41435;DHT22;27177;22.262;114.192;2022-12-29T05:29:37;17.10;99.90
41435;DHT22;27177;22.262;114.192;2022-12-29T05:32:04;17.10;99.90
41435;DHT22;27177;22.262;114.192;2022-12-29T05:34:31;17.10;99.90
41435;DHT22;27177;22.262;114.192;2022-12-29T05:36:58;17.20;99.90
41435;DHT22;27177;22.262;114.192;2022-12-29T05:39:25;17.10;99.90
41435;DHT22;27177;22.262;114.192;2022-12-29T05:41:51;17.10;99.90
41435;DHT22;27177;22.262;114.192;2022-12-29T05:44:18;17.10;99.90
41435;DHT22;27177;22.262;114.192;2022-12-29T05:46:45;17.00;99.90
41435;DHT22;27177;22.262;114.192;2022-12-29T05:49:12;17.00;99.90
41435;DHT22;27177;22.262;114.192;2022-12-29T05:51:38;17.00;99.90
41435;DHT22;27177;22.262;114.192;2022-12-29T05:54:05;17.10;99.90
41435;DHT22;27177;22.262;114.192;2022-12-29T05:56:32;17.10;99.90
41435;DHT22;27177;22.262;114.192;2022-12-29T05:58:59;17.20;99.90
41435;DHT22;27177;22.262;114.192;2022-12-29T06:01:26;17.20;99.90
41435;DHT22;27177;22.262;114.192;2022-12-29T06:03:53;17.20;99.90
41435;DHT22;27177;22.262;114.192;2022-12-29T06:06:20;17.20;99.90
41435;DHT22;27177;22.262;114.192;2022-12-29T06:08:47;17.20;99.90
41435;DHT22;27177;22.262;114.192;2022-12-29T06:11:14;17.30;99.90
41435;DHT22;27177;22.262;114.192;2022-12-29T06:13:41;17.30;99.90
41435;DHT22;27177;22.262;114.192;2022-12-29T06:16:08;17.40;99.90
41435;DHT22;27177;22.262;114.192;2022-12-29T06:18:35;17.40;99.90
41435;DHT22;27177;22.262;114.192;2022-12-29T06:21:03;17.40;99.90
41435;DHT22;27177;22.262;114.192;2022-12-29T06:23:30;17.40;99.90
41435;DHT22;27177;22.262;114.192;2022-12-29T06:25:57;17.40;99.90
41435;DHT22;27177;22.262;114.192;2022-12-29T06:28:24;17.40;99.90
41435;DHT22;27177;22.262;114.192;2022-12-29T06:30:51;17.40;99.90
41435;DHT22;27177;22.262;114.192;2022-12-29T06:33:17;17.40;99.90
41435;DHT22;27177;22.262;114.192;2022-12-29T06:35:44;17.40;99.90
41435;DHT22;27177;22.262;114.192;2022-12-29T06:38:12;17.40;99.90
41435;DHT22;27177;22.262;114.192;2022-12-29T06:40:38;17.40;99.90
41435;DHT22;27177;22.262;114.192;2022-12-29T06:43:07;17.40;99.90
41435;DHT22;27177;22.262;114.192;2022-12-29T06:45:34;17.50;99.90
41435;DHT22;27177;22.262;114.192;2022-12-29T06:48:00;17.50;99.90
41435;DHT22;27177;22.262;114.192;2022-12-29T06:50:27;17.60;99.90
41435;DHT22;27177;22.262;114.192;2022-12-29T06:52:54;17.60;99.90
41435;DHT22;27177;22.262;114.192;2022-12-29T06:55:21;17.60;99.90
41435;DHT22;27177;22.262;114.192;2022-12-29T06:57:48;17.60;99.90
41435;DHT22;27177;22.262;114.192;2022-12-29T07:00:15;17.60;99.90
41435;DHT22;27177;22.262;114.192;2022-12-29T07:02:43;17.60;99.90
41435;DHT22;27177;22.262;114.192;2022-12-29T07:05:09;17.50;99.90
41435;DHT22;27177;22.262;114.192;2022-12-29T07:07:36;17.50;99.90
41435;DHT22;27177;22.262;114.192;2022-12-29T07:10:03;17.50;99.90
41435;DHT22;27177;22.262;114.192;2022-12-29T07:12:30;17.50;99.90
41435;DHT22;27177;22.262;114.192;2022-12-29T07:14:57;17.50;99.90
41435;DHT22;27177;22.262;114.192;2022-12-29T07:17:24;17.40;99.90
41435;DHT22;27177;22.262;114.192;2022-12-29T07:19:50;17.30;99.90
41435;DHT22;27177;22.262;114.192;2022-12-29T07:22:17;17.30;99.90
41435;DHT22;27177;22.262;114.192;2022-12-29T07:24:44;17.30;99.90
41435;DHT22;27177;22.262;114.192;2022-12-29T07:27:11;17.30;99.90
41435;DHT22;27177;22.262;114.192;2022-12-29T07:29:38;17.30;99.90
41435;DHT22;27177;22.262;114.192;2022-12-29T07:32:05;17.20;99.90
41435;DHT22;27177;22.262;114.192;2022-12-29T07:34:32;17.20;99.90
41435;DHT22;27177;22.262;114.192;2022-12-29T07:36:58;17.20;99.90
41435;DHT22;27177;22.262;114.192;2022-12-29T07:39:25;17.20;99.90
41435;DHT22;27177;22.262;114.192;2022-12-29T07:41:52;17.20;99.90
41435;DHT22;27177;22.262;114.192;2022-12-29T07:44:18;17.20;99.90
41435;DHT22;27177;22.262;114.192;2022-12-29T07:46:45;17.20;99.90
41435;DHT22;27177;22.262;114.192;2022-12-29T07:49:12;17.20;99.90
41435;DHT22;27177;22.262;114.192;2022-12-29T07:51:39;17.20;99.90
41435;DHT22;27177;22.262;114.192;2022-12-29T07:54:06;17.20;99.90
41435;DHT22;27177;22.262;114.192;2022-12-29T07:56:32;17.20;99.90
41435;DHT22;27177;22.262;114.192;2022-12-29T07:58:59;17.20;99.90
41435;DHT22;27177;22.262;114.192;2022-12-29T08:01:26;17.20;99.90
41435;DHT22;27177;22.262;114.192;2022-12-29T08:03:53;17.20;99.90
41435;DHT22;27177;22.262;114.192;2022-12-29T08:06:19;17.10;99.90
41435;DHT22;27177;22.262;114.192;2022-12-29T08:08:46;17.10;99.90
41435;DHT22;27177;22.262;114.192;2022-12-29T08:11:13;17.10;99.90
41435;DHT22;27177;22.262;114.192;2022-12-29T08:13:40;17.10;99.90
41435;DHT22;27177;22.262;114.192;2022-12-29T08:16:06;17.10;99.90
41435;DHT22;27177;22.262;114.192;2022-12-29T08:18:33;17.10;99.90
41435;DHT22;27177;22.262;114.192;2022-12-29T08:21:04;17.10;99.90
41435;DHT22;27177;22.262;114.192;2022-12-29T08:23:32;17.00;99.90
41435;DHT22;27177;22.262;114.192;2022-12-29T08:26:00;17.10;99.90
41435;DHT22;27177;22.262;114.192;2022-12-29T08:28:28;17.10;99.90
41435;DHT22;27177;22.262;114.192;2022-12-29T08:30:58;17.10;99.90
41435;DHT22;27177;22.262;114.192;2022-12-29T08:33:25;17.10;99.90
41435;DHT22;27177;22.262;114.192;2022-12-29T08:35:52;17.10;99.90
41435;DHT22;27177;22.262;114.192;2022-12-29T08:38:19;17.00;99.90
41435;DHT22;27177;22.262;114.192;2022-12-29T08:40:45;17.00;99.90
41435;DHT22;27177;22.262;114.192;2022-12-29T08:43:12;17.00;99.90
41435;DHT22;27177;22.262;114.192;2022-12-29T08:45:39;17.00;99.90
41435;DHT22;27177;22.262;114.192;2022-12-29T08:48:06;17.00;99.90
41435;DHT22;27177;22.262;114.192;2022-12-29T08:50:32;17.00;99.90
41435;DHT22;27177;22.262;114.192;2022-12-29T08:52:59;17.00;99.90
41435;DHT22;27177;22.262;114.192;2022-12-29T08:55:26;17.00;99.90
41435;DHT22;27177;22.262;114.192;2022-12-29T08:57:53;17.00;99.90
41435;DHT22;27177;22.262;114.192;2022-12-29T09:00:19;17.00;99.90
41435;DHT22;27177;22.262;114.192;2022-12-29T09:02:47;16.90;99.90
41435;DHT22;27177;22.262;114.192;2022-12-29T09:05:13;16.90;99.90
41435;DHT22;27177;22.262;114.192;2022-12-29T09:07:40;16.90;99.90
41435;DHT22;27177;22.262;114.192;2022-12-29T09:10:07;16.90;99.90
41435;DHT22;27177;22.262;114.192;2022-12-29T09:12:34;16.80;99.90
41435;DHT22;27177;22.262;114.192;2022-12-29T09:15:01;16.80;99.90
41435;DHT22;27177;22.262;114.192;2022-12-29T09:17:27;16.80;99.90
41435;DHT22;27177;22.262;114.192;2022-12-29T09:20:10;16.70;99.90
41435;DHT22;27177;22.262;114.192;2022-12-29T09:22:37;16.70;99.90
41435;DHT22;27177;22.262;114.192;2022-12-29T09:25:05;16.60;99.90
41435;DHT22;27177;22.262;114.192;2022-12-29T09:27:32;16.60;99.90
41435;DHT22;27177;22.262;114.192;2022-12-29T09:29:58;16.50;99.90
41435;DHT22;27177;22.262;114.192;2022-12-29T09:32:25;16.50;99.90
41435;DHT22;27177;22.262;114.192;2022-12-29T09:34:52;16.40;99.90
41435;DHT22;27177;22.262;114.192;2022-12-29T09:37:19;16.30;99.90
41435;DHT22;27177;22.262;114.192;2022-12-29T09:39:45;16.30;99.90
41435;DHT22;27177;22.262;114.192;2022-12-29T09:45:27;16.20;99.90
41435;DHT22;27177;22.262;114.192;2022-12-29T09:47:55;16.20;99.90
41435;DHT22;27177;22.262;114.192;2022-12-29T09:50:32;16.10;99.90
41435;DHT22;27177;22.262;114.192;2022-12-29T09:55:54;16.00;99.90
41435;DHT22;27177;22.262;114.192;2022-12-29T09:58:36;15.90;99.90
41435;DHT22;27177;22.262;114.192;2022-12-29T10:01:32;15.90;99.90
41435;DHT22;27177;22.262;114.192;2022-12-29T10:04:00;15.80;99.90
41435;DHT22;27177;22.262;114.192;2022-12-29T10:09:15;15.80;99.90
41435;DHT22;27177;22.262;114.192;2022-12-29T10:12:00;15.80;99.90
41435;DHT22;27177;22.262;114.192;2022-12-29T10:17:28;15.70;99.90
41435;DHT22;27177;22.262;114.192;2022-12-29T10:24:53;15.60;99.90
41435;DHT22;27177;22.262;114.192;2022-12-29T10:27:21;15.50;99.90
41435;DHT22;27177;22.262;114.192;2022-12-29T10:29:55;15.50;99.90
41435;DHT22;27177;22.262;114.192;2022-12-29T10:42:52;15.20;99.90
41435;DHT22;27177;22.262;114.192;2022-12-29T10:45:21;15.20;99.90
41435;DHT22;27177;22.262;114.192;2022-12-29T10:48:03;15.20;99.90
41435;DHT22;27177;22.262;114.192;2022-12-29T10:50:31;15.20;99.90
41435;DHT22;27177;22.262;114.192;2022-12-29T10:53:00;15.10;99.90
41435;DHT22;27177;22.262;114.192;2022-12-29T10:55:36;15.10;99.90
41435;DHT22;27177;22.262;114.192;2022-12-29T10:58:06;15.10;99.90
41435;DHT22;27177;22.262;114.192;2022-12-29T11:00:33;15.10;99.90
41435;DHT22;27177;22.262;114.192;2022-12-29T11:03:29;15.10;99.90
41435;DHT22;27177;22.262;114.192;2022-12-29T11:08:37;15.20;99.90
41435;DHT22;27177;22.262;114.192;2022-12-29T11:11:08;15.20;99.90
41435;DHT22;27177;22.262;114.192;2022-12-29T11:13:47;15.10;99.90
41435;DHT22;27177;22.262;114.192;2022-12-29T11:16:14;15.20;99.90
41435;DHT22;27177;22.262;114.192;2022-12-29T11:18:41;15.10;99.90
41435;DHT22;27177;22.262;114.192;2022-12-29T11:31:55;15.00;99.90
41435;DHT22;27177;22.262;114.192;2022-12-29T11:37:12;15.10;99.90
41435;DHT22;27177;22.262;114.192;2022-12-29T11:42:17;15.20;99.90
41435;DHT22;27177;22.262;114.192;2022-12-29T11:44:47;15.20;99.90
41435;DHT22;27177;22.262;114.192;2022-12-29T11:47:35;15.10;99.90
41435;DHT22;27177;22.262;114.192;2022-12-29T11:52:40;15.10;99.90
41435;DHT22;27177;22.262;114.192;2022-12-29T11:55:20;15.10;99.90
41435;DHT22;27177;22.262;114.192;2022-12-29T11:57:49;15.10;99.90
41435;DHT22;27177;22.262;114.192;2022-12-29T12:00:18;15.00;99.90
41435;DHT22;27177;22.262;114.192;2022-12-29T12:02:58;15.00;99.90
41435;DHT22;27177;22.262;114.192;2022-12-29T12:08:34;15.00;99.90
41435;DHT22;27177;22.262;114.192;2022-12-29T12:16:43;15.00;99.90
41435;DHT22;27177;22.262;114.192;2022-12-29T12:22:37;14.90;99.90
41435;DHT22;27177;22.262;114.192;2022-12-29T12:25:23;15.00;99.90
41435;DHT22;27177;22.262;114.192;2022-12-29T12:28:03;14.90;99.90
41435;DHT22;27177;22.262;114.192;2022-12-29T12:30:38;14.90;99.90
41435;DHT22;27177;22.262;114.192;2022-12-29T12:33:27;14.90;99.90
41435;DHT22;27177;22.262;114.192;2022-12-29T12:47:35;14.90;99.90
41435;DHT22;27177;22.262;114.192;2022-12-29T12:50:45;14.90;99.90
41435;DHT22;27177;22.262;114.192;2022-12-29T12:53:29;14.90;99.90
41435;DHT22;27177;22.262;114.192;2022-12-29T12:56:09;14.80;99.90
41435;DHT22;27177;22.262;114.192;2022-12-29T12:59:06;14.80;99.90
41435;DHT22;27177;22.262;114.192;2022-12-29T13:02:18;14.70;99.90
41435;DHT22;27177;22.262;114.192;2022-12-29T13:05:16;14.70;99.90
41435;DHT22;27177;22.262;114.192;2022-12-29T13:16:47;14.80;99.90
41435;DHT22;27177;22.262;114.192;2022-12-29T13:22:11;14.70;99.90
41435;DHT22;27177;22.262;114.192;2022-12-29T13:27:44;14.60;99.90
41435;DHT22;27177;22.262;114.192;2022-12-29T13:30:26;14.60;99.90
41435;DHT22;27177;22.262;114.192;2022-12-29T13:35:55;14.70;99.90
41435;DHT22;27177;22.262;114.192;2022-12-29T13:38:45;14.70;99.90
41435;DHT22;27177;22.262;114.192;2022-12-29T13:41:35;14.70;99.90
41435;DHT22;27177;22.262;114.192;2022-12-29T13:44:06;14.60;99.90
41435;DHT22;27177;22.262;114.192;2022-12-29T13:46:42;14.60;99.90
41435;DHT22;27177;22.262;114.192;2022-12-29T13:49:17;14.60;99.90
41435;DHT22;27177;22.262;114.192;2022-12-29T13:51:59;14.60;99.90
41435;DHT22;27177;22.262;114.192;2022-12-29T13:54:55;14.50;99.90
41435;DHT22;27177;22.262;114.192;2022-12-29T14:00:20;14.40;99.90
41435;DHT22;27177;22.262;114.192;2022-12-29T14:03:20;14.40;99.90
41435;DHT22;27177;22.262;114.192;2022-12-29T14:06:23;14.40;99.90
41435;DHT22;27177;22.262;114.192;2022-12-29T14:08:55;14.40;99.90
41435;DHT22;27177;22.262;114.192;2022-12-29T14:11:34;14.40;99.90
41435;DHT22;27177;22.262;114.192;2022-12-29T14:14:25;14.40;99.90
41435;DHT22;27177;22.262;114.192;2022-12-29T14:16:54;14.30;99.90
41435;DHT22;27177;22.262;114.192;2022-12-29T14:19:32;14.30;99.90
41435;DHT22;27177;22.262;114.192;2022-12-29T14:22:03;14.20;99.90
41435;DHT22;27177;22.262;114.192;2022-12-29T14:34:58;14.10;99.90
41435;DHT22;27177;22.262;114.192;2022-12-29T14:37:32;14.10;99.90
41435;DHT22;27177;22.262;114.192;2022-12-29T14:42:51;14.10;99.90
41435;DHT22;27177;22.262;114.192;2022-12-29T14:47:50;14.00;99.90
41435;DHT22;27177;22.262;114.192;2022-12-29T14:50:18;14.00;99.90
41435;DHT22;27177;22.262;114.192;2022-12-29T14:52:58;13.90;99.90
41435;DHT22;27177;22.262;114.192;2022-12-29T14:55:53;13.90;99.90
41435;DHT22;27177;22.262;114.192;2022-12-29T14:59:00;13.90;99.90
41435;DHT22;27177;22.262;114.192;2022-12-29T15:01:39;13.90;99.90
41435;DHT22;27177;22.262;114.192;2022-12-29T15:04:17;13.80;99.90
41435;DHT22;27177;22.262;114.192;2022-12-29T15:06:45;13.80;99.90
41435;DHT22;27177;22.262;114.192;2022-12-29T15:12:00;13.80;99.90
41435;DHT22;27177;22.262;114.192;2022-12-29T15:14:39;13.80;99.90
41435;DHT22;27177;22.262;114.192;2022-12-29T15:17:22;13.80;99.90
41435;DHT22;27177;22.262;114.192;2022-12-29T15:19:49;13.70;99.90
41435;DHT22;27177;22.262;114.192;2022-12-29T15:22:17;13.70;99.90
41435;DHT22;27177;22.262;114.192;2022-12-29T15:24:44;13.70;99.90
41435;DHT22;27177;22.262;114.192;2022-12-29T15:27:16;13.80;99.90
41435;DHT22;27177;22.262;114.192;2022-12-29T15:29:46;13.70;99.90
41435;DHT22;27177;22.262;114.192;2022-12-29T15:32:19;13.70;99.90
41435;DHT22;27177;22.262;114.192;2022-12-29T15:34:49;13.70;99.90
41435;DHT22;27177;22.262;114.192;2022-12-29T15:37:28;13.70;99.90
41435;DHT22;27177;22.262;114.192;2022-12-29T15:39:55;13.70;99.90
41435;DHT22;27177;22.262;114.192;2022-12-29T15:42:50;13.70;99.90
41435;DHT22;27177;22.262;114.192;2022-12-29T15:45:19;13.70;99.90
41435;DHT22;27177;22.262;114.192;2022-12-29T15:47:47;13.70;99.90
41435;DHT22;27177;22.262;114.192;2022-12-29T15:50:37;13.70;99.90
41435;DHT22;27177;22.262;114.192;2022-12-29T15:53:14;13.80;99.90
41435;DHT22;27177;22.262;114.192;2022-12-29T15:55:44;13.90;99.90
41435;DHT22;27177;22.262;114.192;2022-12-29T15:58:40;13.90;99.90
41435;DHT22;27177;22.262;114.192;2022-12-29T16:01:19;14.00;99.90
41435;DHT22;27177;22.262;114.192;2022-12-29T16:03:46;14.00;99.90
41435;DHT22;27177;22.262;114.192;2022-12-29T16:06:34;14.10;99.90
41435;DHT22;27177;22.262;114.192;2022-12-29T16:09:35;14.10;99.90
41435;DHT22;27177;22.262;114.192;2022-12-29T16:11:57;14.10;99.90
41435;DHT22;27177;22.262;114.192;2022-12-29T16:14:40;14.10;99.90
41435;DHT22;27177;22.262;114.192;2022-12-29T16:17:15;14.00;99.90
41435;DHT22;27177;22.262;114.192;2022-12-29T16:20:14;14.00;99.90
41435;DHT22;27177;22.262;114.192;2022-12-29T16:22:48;14.00;99.90
41435;DHT22;27177;22.262;114.192;2022-12-29T16:25:31;14.00;99.90
41435;DHT22;27177;22.262;114.192;2022-12-29T16:28:01;14.00;99.90
41435;DHT22;27177;22.262;114.192;2022-12-29T16:30:31;14.00;99.90
41435;DHT22;27177;22.262;114.192;2022-12-29T16:33:01;14.00;99.90
41435;DHT22;27177;22.262;114.192;2022-12-29T16:35:39;14.00;99.90
41435;DHT22;27177;22.262;114.192;2022-12-29T16:38:16;13.90;99.90
41435;DHT22;27177;22.262;114.192;2022-12-29T16:43:23;13.90;99.90
41435;DHT22;27177;22.262;114.192;2022-12-29T16:48:27;13.80;99.90
41435;DHT22;27177;22.262;114.192;2022-12-29T16:51:14;13.80;99.90
41435;DHT22;27177;22.262;114.192;2022-12-29T16:53:52;13.80;99.90
41435;DHT22;27177;22.262;114.192;2022-12-29T16:56:25;13.80;99.90
41435;DHT22;27177;22.262;114.192;2022-12-29T16:59:04;13.70;99.90
41435;DHT22;27177;22.262;114.192;2022-12-29T17:01:36;13.80;99.90
41435;DHT22;27177;22.262;114.192;2022-12-29T17:04:07;13.70;99.90
41435;DHT22;27177;22.262;114.192;2022-12-29T17:06:35;13.70;99.90
41435;DHT22;27177;22.262;114.192;2022-12-29T17:09:02;13.70;99.90
41435;DHT22;27177;22.262;114.192;2022-12-29T17:11:33;13.70;99.90
41435;DHT22;27177;22.262;114.192;2022-12-29T17:16:54;13.70;99.90
41435;DHT22;27177;22.262;114.192;2022-12-29T17:19:34;13.60;99.90
41435;DHT22;27177;22.262;114.192;2022-12-29T17:22:02;13.60;99.90
41435;DHT22;27177;22.262;114.192;2022-12-29T17:24:30;13.50;99.90
41435;DHT22;27177;22.262;114.192;2022-12-29T17:26:58;13.60;99.90
41435;DHT22;27177;22.262;114.192;2022-12-29T17:29:39;13.50;99.90
41435;DHT22;27177;22.262;114.192;2022-12-29T17:32:12;13.50;99.90
41435;DHT22;27177;22.262;114.192;2022-12-29T17:34:40;13.50;99.90
41435;DHT22;27177;22.262;114.192;2022-12-29T17:37:35;13.50;99.90
41435;DHT22;27177;22.262;114.192;2022-12-29T17:40:05;13.40;99.90
41435;DHT22;27177;22.262;114.192;2022-12-29T17:42:36;13.40;99.90
41435;DHT22;27177;22.262;114.192;2022-12-29T17:45:04;13.50;99.90
41435;DHT22;27177;22.262;114.192;2022-12-29T17:47:31;13.40;99.90
41435;DHT22;27177;22.262;114.192;2022-12-29T17:49:58;13.30;99.90
41435;DHT22;27177;22.262;114.192;2022-12-29T17:52:25;13.40;99.90
41435;DHT22;27177;22.262;114.192;2022-12-29T17:54:52;13.30;99.90
41435;DHT22;27177;22.262;114.192;2022-12-29T17:57:21;13.30;99.90
41435;DHT22;27177;22.262;114.192;2022-12-29T17:59:48;13.30;99.90
41435;DHT22;27177;22.262;114.192;2022-12-29T18:02:33;13.30;99.90
41435;DHT22;27177;22.262;114.192;2022-12-29T18:04:59;13.30;99.90